createdAt,value
2017-03-17T00:00:05.253Z,35.6
2017-03-17T00:02:08.262Z,35.5
2017-03-17T00:04:05.457Z,35.5
2017-03-17T00:06:05.634Z,35.5
2017-03-17T00:08:05.295Z,35.4
2017-03-17T00:10:06.278Z,35.5
2017-03-17T00:12:06.000Z,35.4
2017-03-17T00:14:05.936Z,35.4
2017-03-17T00:16:05.726Z,35.3
2017-03-17T00:18:05.615Z,35.1
2017-03-17T00:20:05.318Z,35.3
2017-03-17T00:22:06.166Z,35.4
2017-03-17T00:24:05.981Z,35.4
2017-03-17T00:26:08.285Z,35.3
2017-03-17T00:28:06.278Z,35.3
2017-03-17T00:30:06.094Z,35.3
2017-03-17T00:32:05.828Z,35.3
2017-03-17T00:34:05.724Z,35.3
2017-03-17T00:36:05.431Z,35.3
2017-03-17T00:38:05.143Z,35.6
2017-03-17T00:40:06.027Z,35.2
2017-03-17T00:42:05.754Z,35
2017-03-17T00:44:05.981Z,35.2
2017-03-17T00:46:06.082Z,35.2
2017-03-17T00:48:05.809Z,35.2
2017-03-17T00:50:05.086Z,35.2
2017-03-17T00:52:05.748Z,35.2
2017-03-17T00:54:05.428Z,34.9
2017-03-17T00:56:05.138Z,34.9
2017-03-17T00:58:05.649Z,34.9
2017-03-17T01:00:05.305Z,35.1
2017-03-17T01:02:05.974Z,35
2017-03-17T01:04:05.830Z,34.9
2017-03-17T01:06:08.116Z,34.8
2017-03-17T01:08:05.855Z,34.8
2017-03-17T01:10:11.017Z,34.8
2017-03-17T01:12:05.690Z,34.7
2017-03-17T01:14:05.414Z,34.8
2017-03-17T01:16:05.256Z,34.8
2017-03-17T01:18:05.304Z,34.7
2017-03-17T01:20:05.562Z,34.8
2017-03-17T01:22:05.519Z,34.8
2017-03-17T01:24:15.849Z,34.8
2017-03-17T01:26:05.100Z,34.5
2017-03-17T01:28:06.085Z,34.4
2017-03-17T01:30:05.799Z,34.6
2017-03-17T01:32:05.035Z,34.5
2017-03-17T01:34:06.133Z,34.6
2017-03-17T01:36:05.916Z,34.5
2017-03-17T01:38:05.635Z,34.5
2017-03-17T01:40:05.686Z,34.5
2017-03-17T01:42:05.426Z,34.3
2017-03-17T01:44:05.113Z,34.4
2017-03-17T01:46:06.106Z,34.5
2017-03-17T01:48:05.812Z,34.5
2017-03-17T01:50:05.669Z,34.4
2017-03-17T01:52:08.540Z,34.4
2017-03-17T01:54:05.742Z,34.4
2017-03-17T01:56:05.485Z,34.5
2017-03-17T01:58:08.735Z,34.5
2017-03-17T02:00:05.441Z,34.3
2017-03-17T02:02:10.273Z,34.3
2017-03-17T02:04:06.122Z,34.5
2017-03-17T02:06:08.715Z,34.5
2017-03-17T02:08:05.458Z,34.3
2017-03-17T02:10:07.826Z,34.3
2017-03-17T02:12:05.548Z,34.3
2017-03-17T02:14:07.799Z,34.3
2017-03-17T02:16:05.969Z,34.3
2017-03-17T02:18:05.878Z,34.2
2017-03-17T02:20:05.255Z,34.2
2017-03-17T02:22:11.297Z,34.5
2017-03-17T02:24:05.985Z,34.4
2017-03-17T02:26:05.677Z,34.5
2017-03-17T02:28:05.502Z,34.3
2017-03-17T02:30:05.456Z,34.3
2017-03-17T02:32:05.180Z,34.3
2017-03-17T02:34:08.298Z,34.3
2017-03-17T02:36:05.530Z,34.3
2017-03-17T02:38:08.046Z,34.3
2017-03-17T02:40:11.129Z,34.3
2017-03-17T02:42:07.966Z,34.3
2017-03-17T02:44:05.695Z,34.3
2017-03-17T02:46:15.444Z,34.3
2017-03-17T02:48:05.166Z,34.3
2017-03-17T02:50:05.888Z,34.3
2017-03-17T02:52:05.816Z,34.4
2017-03-17T02:54:05.706Z,34.3
2017-03-17T02:56:05.457Z,34.4
2017-03-17T02:58:08.571Z,34.3
2017-03-17T03:00:05.215Z,34.5
2017-03-17T03:02:08.424Z,34.3
2017-03-17T03:04:06.837Z,34.3
2017-03-17T03:06:08.100Z,34.3
2017-03-17T03:08:05.829Z,34.3
2017-03-17T03:10:05.962Z,34.4
2017-03-17T03:12:05.218Z,34.4
2017-03-17T03:14:05.534Z,34.4
2017-03-17T03:16:10.584Z,34.4
2017-03-17T03:18:08.007Z,34.4
2017-03-17T03:20:05.769Z,34.4
2017-03-17T03:22:08.301Z,34.5
2017-03-17T03:24:06.086Z,34.5
2017-03-17T03:26:05.720Z,34.3
2017-03-17T03:28:05.632Z,34.4
2017-03-17T03:30:05.867Z,34.4
2017-03-17T03:32:05.705Z,34.4
2017-03-17T03:34:08.365Z,34.4
2017-03-17T03:36:05.180Z,34.6
2017-03-17T03:38:05.430Z,34.4
2017-03-17T03:40:05.615Z,34.4
2017-03-17T03:42:05.676Z,34.4
2017-03-17T03:44:05.375Z,34.5
2017-03-17T03:46:07.921Z,34.4
2017-03-17T03:48:05.644Z,34.4
2017-03-17T03:50:10.438Z,34.4
2017-03-17T03:52:05.312Z,34.4
2017-03-17T03:54:07.748Z,34.4
2017-03-17T03:56:10.497Z,34.4
2017-03-17T03:58:05.625Z,34.5
2017-03-17T04:00:05.411Z,34.5
2017-03-17T04:02:05.122Z,34.5
2017-03-17T04:04:06.006Z,34.5
2017-03-17T04:06:08.222Z,34.5
2017-03-17T04:08:05.958Z,34.6
2017-03-17T04:10:05.501Z,34.5
2017-03-17T04:12:05.165Z,34.5
2017-03-17T04:14:06.982Z,34.5
2017-03-17T04:16:08.460Z,34.6
2017-03-17T04:18:07.933Z,34.6
2017-03-17T04:20:05.628Z,34.5
2017-03-17T04:22:05.992Z,34.6
2017-03-17T04:24:05.679Z,34.6
2017-03-17T04:26:05.366Z,34.6
2017-03-17T04:28:10.808Z,34.6
2017-03-17T04:30:08.645Z,34.6
2017-03-17T04:32:06.494Z,34.6
2017-03-17T04:34:05.669Z,34.6
2017-03-17T04:36:08.416Z,34.7
2017-03-17T04:38:05.392Z,34.7
2017-03-17T04:40:07.749Z,34.6
2017-03-17T04:42:05.444Z,34.6
2017-03-17T04:44:05.140Z,34.6
2017-03-17T04:46:06.195Z,34.6
2017-03-17T04:48:05.941Z,34.6
2017-03-17T04:50:05.710Z,34.6
2017-03-17T04:52:08.062Z,34.5
2017-03-17T04:54:05.770Z,34.5
2017-03-17T04:56:05.711Z,34.5
2017-03-17T04:58:08.279Z,34.5
2017-03-17T05:00:08.570Z,34.5
2017-03-17T05:02:05.404Z,34.5
2017-03-17T05:04:05.450Z,34.5
2017-03-17T05:06:05.141Z,34.5
2017-03-17T05:08:05.824Z,34.6
2017-03-17T05:10:08.257Z,34.6
2017-03-17T05:12:05.999Z,34.5
2017-03-17T05:14:10.752Z,34.5
2017-03-17T05:16:05.800Z,34.5
2017-03-17T05:18:05.988Z,34.5
2017-03-17T05:20:05.201Z,34.5
2017-03-17T05:22:06.032Z,34.5
2017-03-17T05:24:05.308Z,34.6
2017-03-17T05:26:10.951Z,34.5
2017-03-17T05:28:05.801Z,34.5
2017-03-17T05:30:05.879Z,34.5
2017-03-17T05:32:06.342Z,34.5
2017-03-17T05:34:05.319Z,34.4
2017-03-17T05:36:10.366Z,34.4
2017-03-17T05:38:05.061Z,34.8
2017-03-17T05:40:08.610Z,34.4
2017-03-17T05:42:05.896Z,34.4
2017-03-17T05:44:08.372Z,34.4
2017-03-17T05:46:08.211Z,34.4
2017-03-17T05:48:08.066Z,34.4
2017-03-17T05:50:15.840Z,34.5
2017-03-17T05:52:05.664Z,34.5
2017-03-17T05:54:05.424Z,34.5
2017-03-17T05:56:05.169Z,34.4
2017-03-17T05:58:05.555Z,34.4
2017-03-17T06:00:05.701Z,34.4
2017-03-17T06:02:05.442Z,34.4
2017-03-17T06:04:05.672Z,34.4
2017-03-17T06:06:05.645Z,34.4
2017-03-17T06:08:05.347Z,34.4
2017-03-17T06:10:05.397Z,34.4
2017-03-17T06:12:05.282Z,34.5
2017-03-17T06:14:05.201Z,34.4
2017-03-17T06:16:06.843Z,34.5
2017-03-17T06:18:07.784Z,34.5
2017-03-17T06:20:10.710Z,34.4
2017-03-17T06:22:06.645Z,34.4
2017-03-17T06:24:08.116Z,34.4
2017-03-17T06:26:08.386Z,34.4
2017-03-17T06:28:05.418Z,34.4
2017-03-17T06:30:06.024Z,34.4
2017-03-17T06:32:08.247Z,34.4
2017-03-17T06:34:06.204Z,34.4
2017-03-17T06:36:05.876Z,34.4
2017-03-17T06:38:06.653Z,34.4
2017-03-17T06:40:05.601Z,34.4
2017-03-17T06:42:05.376Z,34.4
2017-03-17T06:44:12.635Z,34.5
2017-03-17T06:46:05.703Z,34.5
2017-03-17T06:48:05.666Z,34.5
2017-03-17T06:50:05.905Z,34.5
2017-03-17T06:52:05.930Z,34.5
2017-03-17T06:54:08.738Z,34.5
2017-03-17T06:56:05.682Z,34.3
2017-03-17T06:58:16.261Z,34.5
2017-03-17T07:00:08.893Z,34.6
2017-03-17T07:02:05.480Z,34.3
2017-03-17T07:04:05.577Z,34.3
2017-03-17T07:06:23.100Z,34.3
2017-03-17T07:08:05.460Z,34.3
2017-03-17T07:10:06.128Z,34.3
2017-03-17T07:12:05.839Z,34.3
2017-03-17T07:14:05.534Z,34.6
2017-03-17T07:16:07.991Z,34.4
2017-03-17T07:18:05.955Z,34.6
2017-03-17T07:20:05.220Z,34.6
2017-03-17T07:22:06.327Z,34.6
2017-03-17T07:24:05.232Z,34.6
2017-03-17T07:26:06.090Z,34.6
2017-03-17T07:28:06.104Z,34.6
2017-03-17T07:30:05.895Z,34.6
2017-03-17T07:32:05.110Z,34.6
2017-03-17T07:34:06.114Z,34.6
2017-03-17T07:36:05.166Z,34.6
2017-03-17T07:38:05.878Z,34.6
2017-03-17T07:40:05.958Z,34.6
2017-03-17T07:42:08.674Z,34.6
2017-03-17T07:44:08.022Z,34.6
2017-03-17T07:46:05.975Z,34.6
2017-03-17T07:48:05.700Z,34.6
2017-03-17T07:50:05.451Z,34.3
2017-03-17T07:52:05.316Z,34.6
2017-03-17T07:54:06.046Z,34.3
2017-03-17T07:56:05.366Z,34.4
2017-03-17T07:58:05.834Z,34.3
2017-03-17T08:00:05.662Z,34.4
2017-03-17T08:02:05.375Z,34.3
2017-03-17T08:04:13.040Z,34.4
2017-03-17T08:06:05.739Z,34.4
2017-03-17T08:08:05.501Z,34.3
2017-03-17T08:10:07.942Z,34.5
2017-03-17T08:12:05.682Z,34.5
2017-03-17T08:14:05.589Z,34.5
2017-03-17T08:16:06.214Z,34.5
2017-03-17T08:18:05.163Z,34.5
2017-03-17T08:20:08.365Z,34.8
2017-03-17T08:22:07.917Z,34.9
2017-03-17T08:24:05.621Z,34.7
2017-03-17T08:26:08.374Z,35
2017-03-17T08:28:05.324Z,34.8
2017-03-17T08:30:08.255Z,35
2017-03-17T08:32:05.935Z,35.1
2017-03-17T08:34:08.504Z,35.6
2017-03-17T08:36:05.197Z,35.6
2017-03-17T08:38:05.447Z,35.7
2017-03-17T08:40:05.914Z,35.7
2017-03-17T08:42:05.613Z,36
2017-03-17T08:44:07.886Z,35.8
2017-03-17T08:46:08.480Z,36
2017-03-17T08:48:05.195Z,36
2017-03-17T08:50:08.474Z,35.9
2017-03-17T08:52:05.555Z,35.9
2017-03-17T08:54:05.880Z,36
2017-03-17T08:56:05.728Z,36
2017-03-17T08:58:09.239Z,36.7
2017-03-17T09:00:06.189Z,36.8
2017-03-17T09:02:06.190Z,37
2017-03-17T09:04:06.196Z,37.1
2017-03-17T09:06:05.902Z,37.1
2017-03-17T09:08:06.045Z,37.1
2017-03-17T09:10:05.911Z,37.1
2017-03-17T09:12:08.148Z,37.2
2017-03-17T09:14:07.131Z,37.2
2017-03-17T09:16:09.432Z,37.3
2017-03-17T09:18:10.970Z,37.3
2017-03-17T09:20:05.827Z,37.6
2017-03-17T09:22:06.037Z,37.4
2017-03-17T09:24:05.777Z,37.3
2017-03-17T09:26:06.015Z,37.5
2017-03-17T09:28:05.890Z,37.7
2017-03-17T09:30:05.176Z,37.6
2017-03-17T09:32:08.005Z,37.3
2017-03-17T09:34:06.542Z,37.3
2017-03-17T09:36:05.171Z,37.3
2017-03-17T09:38:05.874Z,37.6
2017-03-17T09:40:05.215Z,37.5
2017-03-17T09:42:05.892Z,37.6
2017-03-17T09:44:10.207Z,37.4
2017-03-17T09:46:06.062Z,37.4
2017-03-17T09:48:05.776Z,37.7
2017-03-17T09:50:06.302Z,37.7
2017-03-17T09:52:05.261Z,37.7
2017-03-17T09:54:05.525Z,37.8
2017-03-17T09:56:05.230Z,37.6
2017-03-17T09:58:05.748Z,37.7
2017-03-17T10:00:05.517Z,37.6
2017-03-17T10:02:05.225Z,37.7
2017-03-17T10:04:06.050Z,37.6
2017-03-17T10:06:05.638Z,37.7
2017-03-17T10:08:05.348Z,37.9
2017-03-17T10:10:05.762Z,37.7
2017-03-17T10:12:07.982Z,37.9
2017-03-17T10:14:05.688Z,37.8
2017-03-17T10:16:08.765Z,37.5
2017-03-17T10:18:05.697Z,37.3
2017-03-17T10:20:05.369Z,37.3
2017-03-17T10:22:05.851Z,37.3
2017-03-17T10:24:05.539Z,37.3
2017-03-17T10:26:07.835Z,37.5
2017-03-17T10:28:05.773Z,37.3
2017-03-17T10:30:05.493Z,37.5
2017-03-17T10:32:07.787Z,37.5
2017-03-17T10:34:05.640Z,37.5
2017-03-17T10:36:05.331Z,37.7
2017-03-17T10:38:08.690Z,37.7
2017-03-17T10:40:08.367Z,37.7
2017-03-17T10:42:07.656Z,37.7
2017-03-17T10:44:05.387Z,37.7
2017-03-17T10:46:11.012Z,37.4
2017-03-17T10:48:07.937Z,37.5
2017-03-17T10:50:07.842Z,37.5
2017-03-17T10:52:07.873Z,37.2
2017-03-17T10:54:05.935Z,37.2
2017-03-17T10:56:05.688Z,37.1
2017-03-17T10:58:08.267Z,36.5
2017-03-17T11:00:05.467Z,36.5
2017-03-17T11:02:05.179Z,36.3
2017-03-17T11:04:08.629Z,36.5
2017-03-17T11:06:05.312Z,36.5
2017-03-17T11:08:06.010Z,36.8
2017-03-17T11:10:08.972Z,36.7
2017-03-17T11:12:05.680Z,36.6
2017-03-17T11:14:07.898Z,36.9
2017-03-17T11:16:10.287Z,36.5
2017-03-17T11:18:05.167Z,36.5
2017-03-17T11:20:05.865Z,36.3
2017-03-17T11:22:06.212Z,36
2017-03-17T11:24:05.442Z,35.8
2017-03-17T11:26:05.455Z,35.7
2017-03-17T11:28:08.086Z,35.4
2017-03-17T11:30:05.997Z,35.4
2017-03-17T11:32:06.684Z,35.1
2017-03-17T11:34:05.748Z,35
2017-03-17T11:36:05.650Z,35.2
2017-03-17T11:38:05.375Z,35.2
2017-03-17T11:40:05.327Z,35.5
2017-03-17T11:42:10.333Z,35.6
2017-03-17T11:44:05.020Z,35.6
2017-03-17T11:46:08.590Z,35.5
2017-03-17T11:48:05.329Z,35.6
2017-03-17T11:50:05.136Z,35.4
2017-03-17T11:52:05.417Z,35.5
2017-03-17T11:54:08.196Z,35.5
2017-03-17T11:56:05.882Z,35.5
2017-03-17T11:58:05.677Z,35.4
2017-03-17T12:00:05.917Z,35.3
2017-03-17T12:02:05.691Z,35.4
2017-03-17T12:04:05.633Z,35.4
2017-03-17T12:06:05.335Z,35.4
2017-03-17T12:08:05.602Z,35.4
2017-03-17T12:10:06.072Z,35.3
2017-03-17T12:12:06.381Z,35.3
2017-03-17T12:14:05.406Z,35.2
2017-03-17T12:16:05.690Z,35.2
2017-03-17T12:18:10.628Z,35.4
2017-03-17T12:20:05.456Z,35.4
2017-03-17T12:22:08.159Z,35.5
2017-03-17T12:24:16.010Z,35.4
2017-03-17T12:26:06.699Z,35.4
2017-03-17T12:28:09.461Z,35.4
2017-03-17T12:30:08.586Z,35.3
2017-03-17T12:32:05.302Z,35.3
2017-03-17T12:34:06.279Z,35.3
2017-03-17T12:36:06.005Z,35.3
2017-03-17T12:38:06.741Z,35.2
2017-03-17T12:40:05.660Z,35.1
2017-03-17T12:42:05.571Z,35.1
2017-03-17T12:44:05.323Z,35.2
2017-03-17T12:46:05.978Z,35.3
2017-03-17T12:48:06.105Z,35.4
2017-03-17T12:50:08.292Z,35.4
2017-03-17T12:52:05.325Z,35.4
2017-03-17T12:54:08.582Z,35.5
2017-03-17T12:56:05.744Z,35.4
2017-03-17T12:58:06.850Z,35.5
2017-03-17T13:00:07.911Z,35.6
2017-03-17T13:02:06.677Z,35.6
2017-03-17T13:04:08.236Z,36.2
2017-03-17T13:06:05.917Z,36.2
2017-03-17T13:08:05.625Z,36.1
2017-03-17T13:10:05.489Z,36.2
2017-03-17T13:12:10.312Z,36.3
2017-03-17T13:14:07.977Z,36.3
2017-03-17T13:16:06.153Z,36.3
2017-03-17T13:18:06.102Z,36.3
2017-03-17T13:20:05.801Z,36.4
2017-03-17T13:22:05.661Z,36.4
2017-03-17T13:24:05.342Z,36.6
2017-03-17T13:26:05.022Z,37
2017-03-17T13:28:06.834Z,37.1
2017-03-17T13:30:05.609Z,37.1
2017-03-17T13:32:12.922Z,37.3
2017-03-17T13:34:13.235Z,37.4
2017-03-17T13:36:08.504Z,37.4
2017-03-17T13:38:05.281Z,37.2
2017-03-17T13:40:05.732Z,37.5
2017-03-17T13:42:05.491Z,37.6
2017-03-17T13:44:05.227Z,37.4
2017-03-17T13:46:05.717Z,37.8
2017-03-17T13:48:05.474Z,37.9
2017-03-17T13:50:08.083Z,38.1
2017-03-17T13:52:06.079Z,38.1
2017-03-17T13:54:06.000Z,38.4
2017-03-17T13:56:05.752Z,38.4
2017-03-17T13:58:08.257Z,38.3
2017-03-17T14:00:05.927Z,38.3
2017-03-17T14:02:05.611Z,38.4
2017-03-17T14:04:05.369Z,38.4
2017-03-17T14:06:05.091Z,38.6
2017-03-17T14:08:08.337Z,38.4
2017-03-17T14:10:05.037Z,38.4
2017-03-17T14:12:08.265Z,38.7
2017-03-17T14:14:05.705Z,38.6
2017-03-17T14:16:05.951Z,38.9
2017-03-17T14:18:05.910Z,39
2017-03-17T14:20:06.268Z,38.7
2017-03-17T14:22:06.044Z,39.4
2017-03-17T14:24:05.495Z,39.3
2017-03-17T14:26:07.838Z,39.6
2017-03-17T14:28:05.533Z,39.8
2017-03-17T14:30:05.215Z,39.9
2017-03-17T14:32:05.950Z,40.1
2017-03-17T14:34:05.644Z,40
2017-03-17T14:36:05.920Z,40
2017-03-17T14:38:06.033Z,40
2017-03-17T14:40:06.118Z,40.2
2017-03-17T14:42:06.038Z,40.7
2017-03-17T14:44:05.814Z,40.8
2017-03-17T14:46:10.857Z,40.6
2017-03-17T14:48:05.573Z,40.9
2017-03-17T14:50:05.273Z,41.1
2017-03-17T14:52:06.211Z,41.1
2017-03-17T14:54:06.143Z,40.7
2017-03-17T14:56:10.948Z,40.6
2017-03-17T14:58:05.448Z,40.6
2017-03-17T15:00:07.697Z,40.6
2017-03-17T15:02:08.439Z,40.6
2017-03-17T15:04:11.249Z,40.5
2017-03-17T15:06:05.992Z,40.5
2017-03-17T15:08:05.729Z,40.3
2017-03-17T15:10:08.122Z,40.4
2017-03-17T15:12:05.810Z,40.4
2017-03-17T15:14:05.032Z,40.4
2017-03-17T15:16:05.879Z,40.5
2017-03-17T15:18:05.309Z,40.4
2017-03-17T15:20:07.557Z,40.6
2017-03-17T15:22:09.449Z,40.4
2017-03-17T15:24:05.102Z,40.4
2017-03-17T15:26:06.463Z,40.4
2017-03-17T15:28:05.345Z,40.4
2017-03-17T15:30:05.041Z,40.5
2017-03-17T15:32:05.729Z,40.4
2017-03-17T15:34:05.538Z,40.4
2017-03-17T15:36:05.252Z,40.3
2017-03-17T15:38:05.961Z,40.3
2017-03-17T15:40:05.979Z,40.4
2017-03-17T15:42:06.035Z,40.3
2017-03-17T15:44:05.697Z,40.2
2017-03-17T15:46:06.196Z,40.2
2017-03-17T15:48:05.944Z,40
2017-03-17T15:50:08.174Z,40.1
2017-03-17T15:52:05.999Z,40.1
2017-03-17T15:54:05.674Z,40.2
2017-03-17T15:56:07.905Z,40.1
2017-03-17T15:58:05.934Z,40.1
2017-03-17T16:00:05.659Z,40
2017-03-17T16:02:05.911Z,40.1
2017-03-17T16:04:13.548Z,40
2017-03-17T16:06:05.342Z,40
2017-03-17T16:08:05.081Z,40
2017-03-17T16:10:05.545Z,39.9
2017-03-17T16:12:05.264Z,39.7
2017-03-17T16:14:08.717Z,39.9
2017-03-17T16:16:05.681Z,39.9
2017-03-17T16:18:05.164Z,40
2017-03-17T16:20:08.392Z,40.1
2017-03-17T16:22:08.464Z,40.1
2017-03-17T16:24:05.200Z,40.1
2017-03-17T16:26:05.890Z,40.1
2017-03-17T16:28:05.905Z,40.1
2017-03-17T16:30:06.504Z,40.1
2017-03-17T16:32:08.666Z,40.1
2017-03-17T16:34:09.591Z,40
2017-03-17T16:36:05.521Z,40
2017-03-17T16:38:12.842Z,39.8
2017-03-17T16:40:08.267Z,40.1
2017-03-17T16:42:05.529Z,39.8
2017-03-17T16:44:05.243Z,40
2017-03-17T16:46:06.765Z,40.1
2017-03-17T16:48:05.460Z,40
2017-03-17T16:50:05.155Z,40
2017-03-17T16:52:06.017Z,40
2017-03-17T16:54:08.507Z,40
2017-03-17T16:56:08.314Z,40
2017-03-17T16:58:05.467Z,39.8
2017-03-17T17:00:05.412Z,39.9
2017-03-17T17:02:05.553Z,39.7
2017-03-17T17:04:05.672Z,39.6
2017-03-17T17:06:05.392Z,39.7
2017-03-17T17:08:05.462Z,39.6
2017-03-17T17:10:06.537Z,39.6
2017-03-17T17:12:14.083Z,39.6
2017-03-17T17:14:07.788Z,39.6
2017-03-17T17:16:08.616Z,39.6
2017-03-17T17:18:10.897Z,39.6
2017-03-17T17:20:09.498Z,39.4
2017-03-17T17:22:05.995Z,39.4
2017-03-17T17:24:05.768Z,39.1
2017-03-17T17:26:05.610Z,39.4
2017-03-17T17:28:06.331Z,39.5
2017-03-17T17:30:05.022Z,39.4
2017-03-17T17:32:08.256Z,39.4
2017-03-17T17:34:06.502Z,39.4
2017-03-17T17:36:05.237Z,39.3
2017-03-17T17:38:07.027Z,39.4
2017-03-17T17:40:05.731Z,39.4
2017-03-17T17:42:05.671Z,39.4
2017-03-17T17:44:05.298Z,39.4
2017-03-17T17:46:05.909Z,39.5
2017-03-17T17:48:07.658Z,39.2
2017-03-17T17:50:10.729Z,39.4
2017-03-17T17:52:11.592Z,39.4
2017-03-17T17:54:10.500Z,39.4
2017-03-17T17:56:05.450Z,39.3
2017-03-17T17:58:05.126Z,39.1
2017-03-17T18:00:05.597Z,39.4
2017-03-17T18:02:10.597Z,39.3
2017-03-17T18:04:06.728Z,39.3
2017-03-17T18:06:06.157Z,39.3
2017-03-17T18:08:06.344Z,39.3
2017-03-17T18:10:05.560Z,39.3
2017-03-17T18:12:12.410Z,39.3
2017-03-17T18:14:07.546Z,39.2
2017-03-17T18:16:05.775Z,39
2017-03-17T18:18:07.191Z,39
2017-03-17T18:20:05.802Z,39.1
2017-03-17T18:22:05.811Z,39.2
2017-03-17T18:24:05.095Z,39.1
2017-03-17T18:26:05.843Z,39.1
2017-03-17T18:28:07.801Z,38.8
2017-03-17T18:30:12.207Z,39
2017-03-17T18:32:05.936Z,38.8
2017-03-17T18:34:07.370Z,38.8
2017-03-17T18:36:05.823Z,38.8
2017-03-17T18:38:05.777Z,38.8
2017-03-17T18:40:05.797Z,39
2017-03-17T18:42:06.034Z,39
2017-03-17T18:44:05.757Z,38.8
2017-03-17T18:46:05.218Z,38.7
2017-03-17T18:48:05.904Z,38.8
2017-03-17T18:50:10.265Z,38.7
2017-03-17T18:52:05.948Z,38.9
2017-03-17T18:54:06.004Z,38.9
2017-03-17T18:56:05.272Z,38.7
2017-03-17T18:58:08.556Z,38.6
2017-03-17T19:00:08.382Z,38.6
2017-03-17T19:02:05.145Z,38.8
2017-03-17T19:04:08.821Z,38.6
2017-03-17T19:06:05.506Z,38.6
2017-03-17T19:08:05.216Z,38.5
2017-03-17T19:10:06.231Z,38.5
2017-03-17T19:12:05.899Z,38.5
2017-03-17T19:14:07.662Z,38.5
2017-03-17T19:16:05.615Z,38.5
2017-03-17T19:18:05.519Z,38.5
2017-03-17T19:20:05.238Z,38.5
2017-03-17T19:22:06.311Z,38.5
2017-03-17T19:24:07.558Z,38.4
2017-03-17T19:26:05.643Z,38.4
2017-03-17T19:28:07.351Z,38.4
2017-03-17T19:30:05.644Z,38.4
2017-03-17T19:32:05.577Z,38.4
2017-03-17T19:34:05.682Z,38.4
2017-03-17T19:36:10.485Z,38.3
2017-03-17T19:38:10.984Z,38.2
2017-03-17T19:40:06.022Z,38.2
2017-03-17T19:42:05.913Z,38.2
2017-03-17T19:44:05.605Z,38.2
2017-03-17T19:46:05.759Z,38.1
2017-03-17T19:48:06.295Z,38.2
2017-03-17T19:50:06.030Z,38.1
2017-03-17T19:52:06.059Z,38.2
2017-03-17T19:54:06.000Z,38.1
2017-03-17T19:56:08.246Z,38.1
2017-03-17T19:58:11.281Z,38
2017-03-17T20:00:06.081Z,38
2017-03-17T20:02:05.978Z,38
2017-03-17T20:04:06.143Z,38
2017-03-17T20:06:08.415Z,37.9
2017-03-17T20:08:05.130Z,37.9
2017-03-17T20:10:07.445Z,37.9
2017-03-17T20:12:07.725Z,37.9
2017-03-17T20:14:06.139Z,37.9
2017-03-17T20:16:11.261Z,37.9
2017-03-17T20:18:07.800Z,37.9
2017-03-17T20:20:05.554Z,37.9
2017-03-17T20:22:05.377Z,37.9
2017-03-17T20:24:05.123Z,37.9
2017-03-17T20:26:10.952Z,37.9
2017-03-17T20:28:06.565Z,37.9
2017-03-17T20:30:05.590Z,37.9
2017-03-17T20:32:05.309Z,37.9
2017-03-17T20:34:05.451Z,38.2
2017-03-17T20:36:05.372Z,38.2
2017-03-17T20:38:07.612Z,37.9
2017-03-17T20:40:05.513Z,37.9
2017-03-17T20:42:07.753Z,37.9
2017-03-17T20:44:05.427Z,37.9
2017-03-17T20:46:06.266Z,37.9
2017-03-17T20:48:06.028Z,37.9
2017-03-17T20:50:07.282Z,38.2
2017-03-17T20:52:05.696Z,38.2
2017-03-17T20:54:05.580Z,37.9
2017-03-17T20:56:05.845Z,37.9
2017-03-17T20:58:08.227Z,37.9
2017-03-17T21:00:06.996Z,37.9
2017-03-17T21:02:08.394Z,37.9
2017-03-17T21:04:05.710Z,37.9
2017-03-17T21:06:07.271Z,37.9
2017-03-17T21:08:05.794Z,37.9
2017-03-17T21:10:09.373Z,37.9
2017-03-17T21:12:05.846Z,37.9
2017-03-17T21:14:10.872Z,37.9
2017-03-17T21:16:05.949Z,37.9
2017-03-17T21:18:06.565Z,37.9
2017-03-17T21:20:05.242Z,37.9
2017-03-17T21:22:06.193Z,37.9
2017-03-17T21:24:07.651Z,37.9
2017-03-17T21:26:05.386Z,37.9
2017-03-17T21:28:05.493Z,37.9
2017-03-17T21:30:07.720Z,37.9
2017-03-17T21:32:07.297Z,37.9
2017-03-17T21:34:06.303Z,37.9
2017-03-17T21:36:05.323Z,37.9
2017-03-17T21:38:05.110Z,37.9
2017-03-17T21:40:13.784Z,37.9
2017-03-17T21:42:08.479Z,37.9
2017-03-17T21:44:05.362Z,37.9
2017-03-17T21:46:05.729Z,37.9
2017-03-17T21:48:05.286Z,37.9
2017-03-17T21:50:05.711Z,37.9
2017-03-17T21:52:06.285Z,37.9
2017-03-17T21:54:05.591Z,37.9
2017-03-17T21:56:05.260Z,38
2017-03-17T21:58:06.140Z,37.9
2017-03-17T22:00:05.350Z,37.3
2017-03-17T22:02:05.225Z,37.4
2017-03-17T22:04:06.214Z,37.7
2017-03-17T22:06:06.314Z,37.8
2017-03-17T22:08:05.277Z,37.9
2017-03-17T22:10:06.229Z,37.9
2017-03-17T22:12:08.565Z,37.9
2017-03-17T22:14:07.785Z,37.9
2017-03-17T22:16:05.619Z,37.9
2017-03-17T22:18:08.045Z,37.9
2017-03-17T22:20:10.453Z,37.9
2017-03-17T22:22:07.832Z,37.9
2017-03-17T22:24:06.961Z,37.9
2017-03-17T22:26:05.517Z,37.9
2017-03-17T22:28:11.460Z,37.9
2017-03-17T22:30:13.539Z,37.9
2017-03-17T22:32:07.739Z,37.9
2017-03-17T22:34:05.953Z,37.9
2017-03-17T22:36:08.293Z,37.9
2017-03-17T22:38:05.877Z,37.9
2017-03-17T22:40:05.404Z,37.9
2017-03-17T22:42:05.135Z,37.9
2017-03-17T22:44:05.877Z,37.9
2017-03-17T22:46:10.856Z,38.2
2017-03-17T22:48:08.091Z,38.2
2017-03-17T22:50:08.482Z,38.2
2017-03-17T22:52:05.577Z,37.9
2017-03-17T22:54:20.647Z,38.2
2017-03-17T22:56:05.632Z,38.2
2017-03-17T22:58:05.448Z,38.2
2017-03-17T23:00:05.691Z,38.2
2017-03-17T23:02:05.417Z,38.2
2017-03-17T23:04:05.313Z,38.2
2017-03-17T23:06:05.130Z,38.2
2017-03-17T23:08:08.721Z,37.9
2017-03-17T23:10:05.717Z,37.9
2017-03-17T23:12:05.947Z,38.2
2017-03-17T23:14:05.258Z,38.2
2017-03-17T23:16:08.392Z,38.2
2017-03-17T23:18:05.315Z,38.2
2017-03-17T23:20:05.065Z,38.2
2017-03-17T23:22:05.816Z,38.2
2017-03-17T23:24:07.992Z,38.2
2017-03-17T23:26:06.314Z,38.2
2017-03-17T23:28:05.223Z,38.2
2017-03-17T23:30:06.910Z,38.2
2017-03-17T23:32:05.579Z,38.2
2017-03-17T23:34:07.911Z,38.2
2017-03-17T23:36:05.656Z,38.2
2017-03-17T23:38:05.382Z,38.2
2017-03-17T23:40:05.352Z,38.2
2017-03-17T23:42:05.417Z,38.2
2017-03-17T23:44:05.407Z,38.2
2017-03-17T23:46:05.972Z,38.2
2017-03-17T23:48:05.663Z,38.2
2017-03-17T23:50:05.906Z,38.2
2017-03-17T23:52:05.872Z,38.2
2017-03-17T23:54:05.171Z,38.2
2017-03-17T23:56:08.499Z,38.2
2017-03-17T23:58:05.499Z,38.2
